Time;durP1;ratioP1;P1;durP2;ratioP2;P2;SDS_P1;SDS_P2;PMS_P1;PMS_P2;Temp;Humidity;BMP_temperature;BMP_pressure;BME280_temperature;BME280_humidity;BME280_pressure;Samples;Min_cycle;Max_cycle;Signal;HPM_P1;HPM_P2
2022/08/23 00:01:55;;;;;;;3.47;3.00;;;18.10;92.50;;;;;;5088759;28;20035;-53
2022/08/23 00:04:33;;;;;;;5.38;3.20;;;18.00;93.10;;;;;;5089151;28;20020;-53
2022/08/23 00:07:00;;;;;;;7.32;3.70;;;18.00;93.10;;;;;;5089473;28;20067;-52
2022/08/23 00:09:27;;;;;;;5.13;3.03;;;17.90;93.30;;;;;;5089468;28;20023;-53
2022/08/23 00:12:15;;;;;;;4.60;3.17;;;17.90;94.00;;;;;;5088860;28;20074;-53
2022/08/23 00:14:47;;;;;;;6.90;3.92;;;17.90;94.30;;;;;;5085640;28;20495;-53
2022/08/23 00:17:14;;;;;;;4.80;2.92;;;17.80;94.90;;;;;;5080534;28;20035;-53
2022/08/23 00:19:41;;;;;;;8.18;2.92;;;17.70;95.40;;;;;;5089235;28;20027;-53
2022/08/23 00:22:07;;;;;;;4.82;3.50;;;17.70;95.80;;;;;;5088294;28;20475;-53
2022/08/23 00:24:33;;;;;;;7.45;3.38;;;17.70;96.60;;;;;;5089130;28;20101;-53
2022/08/23 00:27:19;;;;;;;5.70;3.42;;;17.70;96.40;;;;;;5089222;28;20099;-51
2022/08/23 00:29:51;;;;;;;7.75;3.63;;;17.70;96.20;;;;;;5089273;28;20480;-53
2022/08/23 00:32:23;;;;;;;5.10;3.25;;;17.70;96.70;;;;;;5088097;28;20031;-53
2022/08/23 00:34:49;;;;;;;5.13;3.33;;;17.70;96.80;;;;;;5089022;28;20032;-53
2022/08/23 00:37:16;;;;;;;9.75;3.38;;;17.60;97.20;;;;;;5088697;28;20051;-53
2022/08/23 00:39:43;;;;;;;10.05;3.22;;;17.60;97.50;;;;;;5088947;28;20471;-52
2022/08/23 00:47:44;;;;;;;10.48;3.83;;;17.50;98.50;;;;;;5075837;28;20546;-53
2022/08/23 00:50:30;;;;;;;4.57;2.85;;;17.40;99.10;;;;;;5067211;28;20036;-53
2022/08/23 00:53:27;;;;;;;4.80;3.58;;;17.50;99.60;;;;;;5068506;28;20107;-53
2022/08/23 00:55:57;;;;;;;4.65;3.53;;;17.40;99.90;;;;;;5067974;28;20044;-52
2022/08/23 00:58:24;;;;;;;7.10;3.67;;;17.40;99.90;;;;;;5068492;28;20028;-53
2022/08/23 01:00:52;;;;;;;4.85;3.67;;;17.30;99.90;;;;;;5067892;28;20111;-53
2022/08/23 01:03:20;;;;;;;5.47;3.20;;;17.30;99.90;;;;;;5068665;28;20107;-51
2022/08/23 01:05:59;;;;;;;6.03;3.63;;;17.30;99.90;;;;;;5068485;28;20268;-53
2022/08/23 01:08:28;;;;;;;4.55;3.58;;;17.20;99.90;;;;;;5068437;28;20021;-53
2022/08/23 01:10:59;;;;;;;8.43;4.00;;;17.30;99.90;;;;;;5067775;28;20051;-53
2022/08/23 01:13:32;;;;;;;7.03;3.45;;;17.20;99.90;;;;;;5068147;28;20468;-53
2022/08/23 01:16:06;;;;;;;5.00;3.45;;;17.20;99.90;;;;;;5075150;28;20403;-53
2022/08/23 01:18:33;;;;;;;5.57;3.50;;;17.20;99.90;;;;;;5087656;28;20119;-53
2022/08/23 01:21:08;;;;;;;5.93;3.88;;;17.10;99.90;;;;;;5088013;28;20520;-53
2022/08/23 01:23:50;;;;;;;8.02;3.85;;;17.10;99.90;;;;;;5088458;28;20093;-53
2022/08/23 01:26:18;;;;;;;5.80;3.92;;;17.10;99.90;;;;;;5090339;28;20031;-53
2022/08/23 01:28:44;;;;;;;5.75;3.53;;;17.10;99.90;;;;;;5092328;28;20031;-53
2022/08/23 01:31:11;;;;;;;7.55;4.45;;;17.00;99.90;;;;;;5091943;28;20024;-53
2022/08/23 01:33:37;;;;;;;10.85;4.25;;;17.00;99.90;;;;;;5092392;28;20263;-52
2022/08/23 01:36:04;;;;;;;8.75;4.05;;;16.90;99.90;;;;;;5092031;28;20059;-53
2022/08/23 01:38:30;;;;;;;5.35;3.47;;;16.90;99.90;;;;;;5092639;28;20035;-53
2022/08/23 01:40:56;;;;;;;5.75;4.13;;;16.90;99.90;;;;;;5091901;28;20426;-52
2022/08/23 01:43:22;;;;;;;6.30;3.60;;;16.90;99.90;;;;;;5092240;28;20108;-52
2022/08/23 01:45:49;;;;;;;7.28;3.92;;;16.90;99.90;;;;;;5085386;28;20060;-52
2022/08/23 01:48:16;;;;;;;7.82;3.97;;;16.90;99.90;;;;;;5089091;28;20020;-53
2022/08/23 01:50:42;;;;;;;6.03;4.10;;;16.80;99.90;;;;;;5091273;28;20016;-53
2022/08/23 01:53:08;;;;;;;6.43;3.83;;;16.90;99.90;;;;;;5092405;28;20031;-53
2022/08/23 01:55:34;;;;;;;7.63;3.72;;;16.80;99.90;;;;;;5091595;28;20078;-53
2022/08/23 01:58:02;;;;;;;9.23;4.10;;;16.80;99.90;;;;;;5092363;28;20111;-53
2022/08/23 02:00:32;;;;;;;5.88;4.43;;;16.80;99.90;;;;;;5091436;28;20224;-53
2022/08/23 02:02:59;;;;;;;4.97;3.80;;;16.70;99.90;;;;;;5091588;28;20464;-52
2022/08/23 02:05:26;;;;;;;6.25;4.03;;;16.70;99.90;;;;;;5091536;28;20032;-53
2022/08/23 02:07:52;;;;;;;6.35;4.40;;;16.70;99.90;;;;;;5092150;28;20468;-53
2022/08/23 02:10:18;;;;;;;5.85;3.80;;;16.60;99.90;;;;;;5091544;28;20031;-53
2022/08/23 02:12:44;;;;;;;7.07;3.22;;;16.50;99.90;;;;;;5090762;28;20031;-53
2022/08/23 02:15:09;;;;;;;6.30;3.78;;;16.40;99.90;;;;;;5090230;28;20622;-53
2022/08/23 02:17:35;;;;;;;10.68;3.92;;;16.40;99.90;;;;;;5082833;28;20518;-52
2022/08/23 02:20:03;;;;;;;7.82;4.13;;;16.30;99.90;;;;;;5090226;28;20494;-53
2022/08/23 02:22:28;;;;;;;9.60;4.38;;;16.30;99.90;;;;;;5090474;28;20077;-53
2022/08/23 02:24:54;;;;;;;7.32;4.30;;;16.30;99.90;;;;;;5091191;28;20020;-53
2022/08/23 02:27:19;;;;;;;6.03;4.45;;;16.40;99.90;;;;;;5091262;28;20171;-53
2022/08/23 02:29:45;;;;;;;5.43;4.13;;;16.30;99.90;;;;;;5091492;28;20089;-53
2022/08/23 02:32:14;;;;;;;5.68;4.05;;;16.30;99.90;;;;;;5090963;28;20034;-53
2022/08/23 02:34:40;;;;;;;7.55;4.68;;;16.30;99.90;;;;;;5090943;28;20028;-51
2022/08/23 02:37:07;;;;;;;5.78;3.83;;;16.20;99.90;;;;;;5090935;28;20036;-53
2022/08/23 02:39:34;;;;;;;7.63;4.10;;;16.20;99.90;;;;;;5091002;28;20029;-53
2022/08/23 02:41:59;;;;;;;9.25;4.55;;;16.20;99.90;;;;;;5090754;28;20040;-52
2022/08/23 02:44:25;;;;;;;5.78;4.35;;;16.10;99.90;;;;;;5089792;28;20376;-53
2022/08/23 02:46:51;;;;;;;8.35;4.63;;;16.00;99.90;;;;;;5082632;28;20463;-53
2022/08/23 02:49:17;;;;;;;4.18;3.70;;;16.00;99.90;;;;;;5090979;28;20020;-53
2022/08/23 02:51:45;;;;;;;5.97;4.65;;;16.10;99.90;;;;;;5090625;28;20093;-53
2022/08/23 02:54:10;;;;;;;5.82;4.40;;;16.00;99.90;;;;;;5090774;28;20562;-53
2022/08/23 02:56:36;;;;;;;5.75;4.68;;;15.90;99.90;;;;;;5090986;28;20042;-52
2022/08/23 02:59:04;;;;;;;7.68;4.55;;;15.90;99.90;;;;;;5090518;28;20498;-53
2022/08/23 03:01:33;;;;;;;5.07;3.95;;;15.80;99.90;;;;;;5089941;28;20036;-53
2022/08/23 03:04:00;;;;;;;6.18;4.22;;;15.80;99.90;;;;;;5090762;28;20562;-52
2022/08/23 03:06:26;;;;;;;7.40;5.05;;;15.80;99.90;;;;;;5090949;28;20027;-53
2022/08/23 03:08:53;;;;;;;5.53;4.20;;;15.90;99.90;;;;;;5090353;28;20500;-52
2022/08/23 03:11:20;;;;;;;5.75;4.80;;;15.80;99.90;;;;;;5090192;28;20099;-53
2022/08/23 03:13:47;;;;;;;8.95;5.28;;;15.80;99.90;;;;;;5090621;28;20016;-53
2022/08/23 03:16:13;;;;;;;5.70;4.60;;;15.80;99.90;;;;;;5080159;28;20025;-53
2022/08/23 03:18:39;;;;;;;8.60;4.82;;;15.80;99.90;;;;;;5090327;28;20479;-53
2022/08/23 03:21:07;;;;;;;7.03;4.72;;;15.80;99.90;;;;;;5089877;28;20483;-52
2022/08/23 03:23:33;;;;;;;6.38;5.22;;;15.70;99.90;;;;;;5090321;28;20024;-52
2022/08/23 03:26:00;;;;;;;6.78;5.32;;;15.80;99.90;;;;;;5090189;28;20265;-53
2022/08/23 03:28:27;;;;;;;7.30;4.72;;;15.80;99.90;;;;;;5089884;28;20066;-51
2022/08/23 03:30:53;;;;;;;7.40;4.70;;;15.80;99.90;;;;;;5089649;28;20028;-52
2022/08/23 03:33:19;;;;;;;9.25;5.22;;;15.80;99.90;;;;;;5089911;28;20498;-52
2022/08/23 03:35:44;;;;;;;7.95;4.72;;;15.80;99.90;;;;;;5090101;28;20031;-52
2022/08/23 03:38:10;;;;;;;7.07;4.82;;;15.80;99.90;;;;;;5089927;28;20077;-53
2022/08/23 03:40:36;;;;;;;8.85;5.18;;;15.80;99.90;;;;;;5089623;28;20032;-52
2022/08/23 03:43:02;;;;;;;9.38;4.82;;;15.70;99.90;;;;;;5089903;28;20467;-52
2022/08/23 03:45:28;;;;;;;8.65;5.40;;;15.70;99.90;;;;;;5086129;28;20024;-52
2022/08/23 03:47:53;;;;;;;9.60;5.32;;;15.60;99.90;;;;;;5083634;28;20020;-52
2022/08/23 03:50:19;;;;;;;10.38;5.75;;;15.60;99.90;;;;;;5089325;28;20548;-52
2022/08/23 03:52:45;;;;;;;8.63;6.28;;;15.60;99.90;;;;;;5089147;28;20186;-52
2022/08/23 03:55:11;;;;;;;10.00;5.50;;;15.60;99.90;;;;;;5089663;28;20468;-52
2022/08/23 03:57:37;;;;;;;10.43;6.07;;;15.50;99.90;;;;;;5089308;28;20156;-50
2022/08/23 04:00:06;;;;;;;12.70;5.60;;;15.50;99.90;;;;;;5090013;28;20516;-52
2022/08/23 04:02:31;;;;;;;7.43;5.70;;;15.50;99.90;;;;;;5088732;28;20039;-51
2022/08/23 04:04:57;;;;;;;9.23;5.40;;;15.50;99.90;;;;;;5089499;28;20032;-53
2022/08/23 04:07:23;;;;;;;6.55;4.68;;;15.40;99.90;;;;;;5089181;28;20032;-52
2022/08/23 04:09:48;;;;;;;10.32;5.80;;;15.30;99.90;;;;;;5089338;28;20028;-52
2022/08/23 04:12:14;;;;;;;8.27;5.07;;;15.20;99.90;;;;;;5088515;28;20482;-52
2022/08/23 04:14:39;;;;;;;8.85;6.10;;;15.20;99.90;;;;;;5087814;28;20024;-53
2022/08/23 04:17:05;;;;;;;7.30;5.07;;;15.10;99.90;;;;;;5080661;28;20028;-53
2022/08/23 04:19:31;;;;;;;7.38;5.40;;;15.20;99.90;;;;;;5088969;28;20034;-53
2022/08/23 04:21:56;;;;;;;9.20;5.72;;;15.10;99.90;;;;;;5088544;28;20274;-52
2022/08/23 04:24:22;;;;;;;7.65;5.38;;;15.10;99.90;;;;;;5075046;28;20043;-53
2022/08/23 04:26:47;;;;;;;7.50;5.53;;;15.10;99.90;;;;;;5067074;28;20032;-52
2022/08/23 04:29:15;;;;;;;7.63;5.88;;;15.10;99.90;;;;;;5068511;28;20316;-52
2022/08/23 04:31:44;;;;;;;6.22;5.30;;;15.10;99.90;;;;;;5067842;28;20534;-53
2022/08/23 04:34:10;;;;;;;7.05;5.15;;;15.20;99.90;;;;;;5067253;28;20039;-52
2022/08/23 04:36:40;;;;;;;11.48;6.18;;;15.10;99.90;;;;;;5068445;28;20038;-52
2022/08/23 04:39:06;;;;;;;12.20;6.25;;;15.10;99.90;;;;;;5068825;28;20541;-52
2022/08/23 04:44:16;;;;;;;10.07;5.70;;;15.20;99.90;;;;;;5069512;28;20534;-52
2022/08/23 04:46:42;;;;;;;9.85;5.57;;;15.20;99.90;;;;;;5080062;28;20060;-52
2022/08/23 04:49:09;;;;;;;8.15;5.45;;;15.20;99.90;;;;;;5073624;28;20073;-52
2022/08/23 04:51:35;;;;;;;7.97;6.13;;;15.20;99.90;;;;;;5066230;28;20172;-52
2022/08/23 04:54:00;;;;;;;7.35;5.72;;;15.20;99.90;;;;;;5068263;28;20258;-53
2022/08/23 04:56:27;;;;;;;7.45;5.57;;;15.30;99.90;;;;;;5065199;28;20029;-52
2022/08/23 04:58:53;;;;;;;7.15;5.97;;;15.30;99.90;;;;;;5066950;28;20070;-53
2022/08/23 05:01:18;;;;;;;11.10;6.45;;;15.30;99.90;;;;;;5067359;28;20040;-53
2022/08/23 05:03:44;;;;;;;10.02;6.38;;;15.30;99.90;;;;;;5068774;28;20104;-53
2022/08/23 05:06:09;;;;;;;7.03;6.00;;;15.30;99.90;;;;;;5068114;28;20032;-52
2022/08/23 05:08:35;;;;;;;11.50;6.35;;;15.40;99.90;;;;;;5067275;28;20059;-53
2022/08/23 05:11:02;;;;;;;6.95;5.93;;;15.40;99.90;;;;;;5067713;28;20029;-52
2022/08/23 05:13:28;;;;;;;7.03;5.95;;;15.40;99.90;;;;;;5079546;28;20028;-53
2022/08/23 05:15:54;;;;;;;12.20;6.97;;;15.40;99.90;;;;;;5073739;28;20111;-53
2022/08/23 05:18:20;;;;;;;11.80;7.40;;;15.50;99.90;;;;;;5067332;28;20586;-51
2022/08/23 05:20:45;;;;;;;10.50;6.30;;;15.50;99.90;;;;;;5069075;28;20115;-52
2022/08/23 05:23:11;;;;;;;13.65;6.22;;;15.50;99.90;;;;;;5067450;28;20247;-52
2022/08/23 05:26:10;;;;;;;7.50;5.10;;;15.60;99.90;;;;;;5066745;28;20110;-51
2022/08/23 05:28:31;;;;;;;7.63;5.13;;;15.60;99.90;;;;;;5064192;28;20036;-52
2022/08/23 05:31:04;;;;;;;9.10;5.18;;;15.60;99.90;;;;;;5067417;28;20041;-51
2022/08/23 05:33:31;;;;;;;9.43;5.75;;;15.70;99.90;;;;;;5065050;28;20024;-52
2022/08/23 05:35:58;;;;;;;7.57;5.97;;;15.70;99.90;;;;;;5044141;28;20461;-53
2022/08/23 05:38:25;;;;;;;11.75;5.07;;;15.80;99.90;;;;;;5047759;28;20087;-52
2022/08/23 05:40:53;;;;;;;7.43;5.32;;;15.80;99.90;;;;;;5047879;28;20065;-53
2022/08/23 05:43:19;;;;;;;6.32;5.53;;;15.80;99.90;;;;;;5048365;28;20048;-53
2022/08/23 05:45:45;;;;;;;8.75;5.55;;;15.90;99.90;;;;;;5070316;28;20040;-53
2022/08/23 05:48:11;;;;;;;8.65;5.15;;;15.90;99.90;;;;;;5067767;28;20151;-52
2022/08/23 05:50:38;;;;;;;5.13;4.60;;;16.00;99.90;;;;;;5064097;28;20070;-52
2022/08/23 05:53:04;;;;;;;5.47;4.80;;;16.10;99.90;;;;;;5067393;28;20031;-51
2022/08/23 05:55:30;;;;;;;9.48;5.03;;;16.10;99.90;;;;;;5067598;28;20032;-52
2022/08/23 05:57:56;;;;;;;8.93;5.30;;;16.20;99.90;;;;;;5068079;28;20055;-52
2022/08/23 06:00:21;;;;;;;13.07;4.63;;;16.30;99.90;;;;;;5067072;28;20029;-53
2022/08/23 06:02:48;;;;;;;10.73;5.15;;;16.30;99.90;;;;;;5066738;28;20447;-52
2022/08/23 06:05:14;;;;;;;4.72;4.22;;;16.40;99.90;;;;;;5066998;28;20033;-52
2022/08/23 06:07:40;;;;;;;7.32;4.35;;;16.40;99.90;;;;;;5067705;28;20036;-52
2022/08/23 06:10:06;;;;;;;11.23;4.78;;;16.50;99.90;;;;;;5067921;28;20444;-52
2022/08/23 06:12:32;;;;;;;4.80;4.30;;;16.60;99.90;;;;;;5069157;28;20037;-53
2022/08/23 06:14:58;;;;;;;7.20;4.43;;;16.70;99.90;;;;;;5077818;28;20391;-52
2022/08/23 06:17:23;;;;;;;8.60;4.93;;;16.80;99.90;;;;;;5082721;28;20032;-53
2022/08/23 06:19:49;;;;;;;7.88;4.97;;;16.90;99.90;;;;;;5091296;28;20496;-53
2022/08/23 06:22:14;;;;;;;11.02;5.05;;;16.90;99.90;;;;;;5088957;28;20563;-51
2022/08/23 06:24:40;;;;;;;8.90;4.72;;;17.00;99.90;;;;;;5091182;28;20038;-53
2022/08/23 06:27:06;;;;;;;8.25;4.22;;;17.10;99.90;;;;;;5091182;28;20020;-53
2022/08/23 06:29:31;;;;;;;6.18;4.40;;;17.20;99.90;;;;;;5091260;28;20475;-53
2022/08/23 06:31:57;;;;;;;6.13;4.10;;;17.30;99.90;;;;;;5089466;28;20027;-53
2022/08/23 06:34:32;;;;;;;7.50;4.32;;;17.30;99.90;;;;;;5089535;28;20573;-53
2022/08/23 06:37:01;;;;;;;7.60;3.80;;;17.40;99.90;;;;;;5072201;28;20028;-53
2022/08/23 06:39:28;;;;;;;5.95;3.75;;;17.50;99.90;;;;;;5068493;28;20021;-53
2022/08/23 06:42:05;;;;;;;9.77;4.47;;;17.60;99.90;;;;;;5070151;28;20048;-53
2022/08/23 06:44:34;;;;;;;12.07;4.53;;;17.60;99.90;;;;;;5067773;28;20030;-53
2022/08/23 06:46:59;;;;;;;8.75;4.07;;;17.80;99.90;;;;;;5071259;28;20047;-53
2022/08/23 06:49:26;;;;;;;8.93;3.78;;;17.90;99.90;;;;;;5069819;28;20103;-53
2022/08/23 06:51:54;;;;;;;6.10;3.63;;;18.00;99.90;;;;;;5070303;28;20029;-53
2022/08/23 06:54:26;;;;;;;6.00;3.88;;;18.10;99.90;;;;;;5070358;28;20024;-53
2022/08/23 06:56:52;;;;;;;8.25;4.20;;;18.20;99.90;;;;;;5063727;28;20037;-53
2022/08/23 06:59:19;;;;;;;4.80;3.45;;;18.30;99.90;;;;;;5064665;28;20013;-53
2022/08/23 07:01:49;;;;;;;4.47;3.53;;;18.40;99.90;;;;;;5067447;28;20055;-53
2022/08/23 07:04:20;;;;;;;6.93;3.90;;;18.40;99.90;;;;;;5067848;28;20020;-53
2022/08/23 07:06:46;;;;;;;6.32;3.55;;;18.50;99.90;;;;;;5069275;28;20548;-53
2022/08/23 07:09:12;;;;;;;5.75;3.20;;;18.60;99.90;;;;;;5069631;28;20280;-53
2022/08/23 07:11:38;;;;;;;8.52;3.90;;;18.80;99.90;;;;;;5067927;28;20123;-53
2022/08/23 07:14:06;;;;;;;6.20;3.20;;;18.90;99.90;;;;;;5068385;28;20039;-53
2022/08/23 07:16:40;;;;;;;5.32;3.40;;;19.00;99.90;;;;;;5079659;28;20115;-53
2022/08/23 07:19:07;;;;;;;5.68;3.95;;;19.10;99.90;;;;;;5089546;28;20036;-53
2022/08/23 07:21:33;;;;;;;6.18;3.40;;;19.20;99.90;;;;;;5087191;28;20028;-53
2022/08/23 07:23:59;;;;;;;5.30;3.08;;;19.30;99.90;;;;;;5088128;28;20110;-53
2022/08/23 07:26:25;;;;;;;8.13;3.33;;;19.50;99.90;;;;;;5088185;28;20033;-53
2022/08/23 07:28:50;;;;;;;7.72;2.63;;;19.60;99.90;;;;;;5089383;28;20028;-52
2022/08/23 07:31:26;;;;;;;5.32;2.90;;;19.70;99.90;;;;;;5087950;28;20097;-53
2022/08/23 07:33:53;;;;;;;9.15;3.20;;;19.90;99.90;;;;;;5089656;28;20023;-53
2022/08/23 07:36:21;;;;;;;7.13;3.30;;;20.00;99.90;;;;;;5087921;28;20077;-53
2022/08/23 07:38:47;;;;;;;4.80;2.75;;;20.20;99.90;;;;;;5089174;28;20091;-53
2022/08/23 07:41:13;;;;;;;3.45;2.58;;;20.30;99.90;;;;;;5087026;28;20513;-55
2022/08/23 07:43:40;;;;;;;5.03;2.38;;;20.50;99.90;;;;;;5089265;28;20040;-53
2022/08/23 07:46:06;;;;;;;5.70;2.65;;;20.60;99.90;;;;;;5078397;28;20096;-53
2022/08/23 07:48:33;;;;;;;3.38;2.80;;;20.80;99.90;;;;;;5088491;28;20031;-53
2022/08/23 07:51:01;;;;;;;2.42;2.22;;;21.00;99.90;;;;;;5086746;28;20078;-53
2022/08/23 07:53:27;;;;;;;7.82;2.90;;;21.20;99.90;;;;;;5089263;28;20016;-53
2022/08/23 07:55:53;;;;;;;3.13;2.35;;;21.50;99.30;;;;;;5077114;28;20040;-54
2022/08/23 07:58:20;;;;;;;4.85;2.28;;;21.70;98.40;;;;;;5056009;28;20032;-54
2022/08/23 08:00:46;;;;;;;6.00;1.98;;;22.10;97.70;;;;;;5060991;28;20438;-54
2022/08/23 08:03:13;;;;;;;3.50;2.15;;;22.90;96.90;;;;;;5066655;28;20017;-55
2022/08/23 08:05:39;;;;;;;2.72;1.90;;;24.50;93.80;;;;;;5066823;28;20095;-54
2022/08/23 08:08:06;;;;;;;3.67;1.70;;;25.80;91.50;;;;;;5068196;28;20028;-54
2022/08/23 08:10:35;;;;;;;2.83;1.30;;;27.20;87.70;;;;;;5067871;28;20436;-54
2022/08/23 08:13:01;;;;;;;3.72;1.48;;;28.20;82.90;;;;;;5067535;28;20036;-54
2022/08/23 08:15:26;;;;;;;2.28;1.27;;;30.00;74.50;;;;;;5075519;28;20020;-54
2022/08/23 08:17:52;;;;;;;4.45;1.50;;;30.80;69.70;;;;;;5068283;28;20030;-54
2022/08/23 08:20:18;;;;;;;4.65;1.38;;;31.80;66.90;;;;;;5067222;28;20480;-52
2022/08/23 08:22:46;;;;;;;4.32;1.50;;;32.70;63.80;;;;;;5065091;28;20487;-52
2022/08/23 08:25:12;;;;;;;4.20;1.45;;;33.40;60.60;;;;;;5066114;28;20471;-54
2022/08/23 08:27:37;;;;;;;3.33;1.45;;;34.40;58.10;;;;;;5066473;28;20024;-53
2022/08/23 08:30:05;;;;;;;3.75;1.52;;;34.90;56.40;;;;;;5067233;28;20024;-53
2022/08/23 08:32:30;;;;;;;3.75;1.65;;;34.90;55.30;;;;;;5064852;28;20048;-53
2022/08/23 08:34:56;;;;;;;2.78;1.50;;;35.10;54.40;;;;;;5067379;28;21028;-53
2022/08/23 08:37:21;;;;;;;2.58;1.20;;;35.60;53.80;;;;;;5070655;28;20044;-53
2022/08/23 08:39:47;;;;;;;5.72;1.40;;;36.10;51.70;;;;;;5070639;28;20538;-53
2022/08/23 08:43:06;;;;;;;2.42;1.55;;;36.50;49.90;;;;;;5066776;28;20031;-54
2022/08/23 08:45:47;;;;;;;4.03;1.33;;;37.00;49.20;;;;;;4986494;28;20065;-55
2022/08/23 08:48:19;;;;;;;2.08;1.20;;;37.00;48.30;;;;;;5066954;28;20456;-54
2022/08/23 08:51:08;;;;;;;1.92;1.15;;;37.10;47.80;;;;;;5073951;28;20202;-54
2022/08/23 08:53:40;;;;;;;1.67;1.23;;;37.60;46.80;;;;;;5043455;28;20041;-54
2022/08/23 08:56:33;;;;;;;2.78;1.10;;;37.80;46.10;;;;;;5042802;28;20050;-54
2022/08/23 08:59:02;;;;;;;2.70;1.17;;;37.80;44.90;;;;;;5040893;28;20033;-54
2022/08/23 09:01:28;;;;;;;3.35;1.10;;;36.50;45.40;;;;;;5041864;28;20029;-54
2022/08/23 09:03:55;;;;;;;5.60;1.58;;;36.70;46.40;;;;;;5064277;28;20479;-54
2022/08/23 09:06:31;;;;;;;1.67;1.13;;;36.80;45.30;;;;;;5068056;28;20487;-54
2022/08/23 09:09:14;;;;;;;3.63;1.30;;;37.40;45.40;;;;;;5070340;28;20031;-54
2022/08/23 09:11:49;;;;;;;4.57;1.23;;;38.00;45.10;;;;;;5075670;28;20031;-55
2022/08/23 09:14:25;;;;;;;5.60;1.40;;;37.80;44.60;;;;;;5066908;28;20267;-54
2022/08/23 09:16:54;;;;;;;3.63;1.60;;;37.40;45.00;;;;;;5073574;28;20024;-53
2022/08/23 09:19:22;;;;;;;5.57;1.80;;;37.80;44.40;;;;;;5065868;28;20534;-55
2022/08/23 09:22:01;;;;;;;2.75;1.33;;;36.80;45.00;;;;;;5067193;28;20364;-55
2022/08/23 09:24:28;;;;;;;4.10;1.45;;;37.30;45.50;;;;;;5065963;28;20488;-55
2022/08/23 09:26:55;;;;;;;6.85;1.48;;;36.50;44.90;;;;;;5067736;28;20189;-55
2022/08/23 09:29:26;;;;;;;2.78;1.45;;;37.80;44.70;;;;;;5073777;28;20052;-55
2022/08/23 09:32:01;;;;;;;6.95;1.42;;;38.10;44.40;;;;;;5075326;28;20499;-55
2022/08/23 09:34:29;;;;;;;3.75;1.45;;;39.70;42.60;;;;;;5078185;28;20063;-53
2022/08/23 09:37:23;;;;;;;4.78;1.63;;;38.50;42.10;;;;;;5079069;28;20024;-55
2022/08/23 09:39:52;;;;;;;3.13;1.55;;;37.30;45.40;;;;;;5088242;28;20024;-58
2022/08/23 09:42:35;;;;;;;3.60;1.23;;;39.20;43.30;;;;;;5087392;28;20323;-55
2022/08/23 09:45:04;;;;;;;6.65;1.70;;;39.00;42.10;;;;;;5086468;28;20107;-55
2022/08/23 09:47:39;;;;;;;1.58;1.10;;;38.90;42.80;;;;;;5082309;28;20105;-55
2022/08/23 09:50:26;;;;;;;117.50;105.40;;;39.90;41.70;;;;;;5091856;28;20069;-55
2022/08/23 09:53:02;;;;;;;12.73;9.00;;;39.70;41.40;;;;;;5087387;28;20055;-55
2022/08/23 09:55:37;;;;;;;4.68;2.13;;;39.40;41.90;;;;;;5074826;28;20451;-55
2022/08/23 09:58:14;;;;;;;5.05;1.70;;;40.00;42.00;;;;;;5070043;28;20388;-55
2022/08/23 10:00:40;;;;;;;5.63;1.38;;;41.10;40.40;;;;;;5068714;28;20177;-55
2022/08/23 10:03:39;;;;;;;4.15;1.88;;;41.00;40.60;;;;;;5070382;28;20099;-55
2022/08/23 10:06:04;;;;;;;;;;;40.50;40.80;;;;;;5056748;28;20021;-55
2022/08/23 10:08:37;;;;;;;3.40;1.35;;;40.80;40.50;;;;;;5070824;28;20007;-55
2022/08/23 10:11:16;;;;;;;5.55;1.50;;;40.50;41.00;;;;;;5069260;28;20480;-55
2022/08/23 10:13:43;;;;;;;2.45;1.25;;;40.80;40.50;;;;;;5070682;28;20041;-55
2022/08/23 10:16:46;;;;;;;4.35;1.48;;;40.70;40.10;;;;;;5079273;28;20033;-55
2022/08/23 10:19:30;;;;;;;3.20;1.35;;;41.10;39.50;;;;;;5065278;28;20104;-55
2022/08/23 10:22:22;;;;;;;2.30;1.17;;;40.50;40.90;;;;;;5067470;28;20037;-56
2022/08/23 10:25:06;;;;;;;2.85;1.60;;;41.40;39.80;;;;;;5051817;28;20438;-55
2022/08/23 10:30:58;;;;;;;2.60;1.48;;;41.30;40.10;;;;;;5079727;28;20162;-55
2022/08/23 10:33:23;;;;;;;3.75;1.50;;;41.70;39.50;;;;;;5082031;28;20070;-54
2022/08/23 10:36:10;;;;;;;4.10;1.35;;;42.40;38.70;;;;;;5091310;28;20524;-54
2022/08/23 10:38:49;;;;;;;3.30;1.35;;;41.90;38.80;;;;;;5091317;28;20270;-54
2022/08/23 10:41:51;;;;;;;2.95;1.67;;;42.40;38.20;;;;;;5090810;28;20028;-55
2022/08/23 10:44:32;;;;;;;1.38;1.10;;;40.50;38.10;;;;;;5063023;28;20028;-55
2022/08/23 10:47:31;;;;;;;5.15;1.55;;;40.50;38.70;;;;;;5077116;28;20055;-55
2022/08/23 10:50:04;;;;;;;4.60;1.38;;;40.10;38.70;;;;;;5062600;28;20453;-55
2022/08/23 10:52:39;;;;;;;4.28;1.10;;;40.50;40.20;;;;;;5068957;28;20060;-55
2022/08/23 10:55:15;;;;;;;2.22;1.25;;;40.60;38.60;;;;;;5078897;28;20031;-55
2022/08/23 10:57:42;;;;;;;3.67;1.40;;;39.40;38.80;;;;;;5070622;28;20021;-55
2022/08/23 11:00:14;;;;;;;4.10;1.30;;;39.10;39.80;;;;;;5070871;28;20021;-55
2022/08/23 11:02:51;;;;;;;3.65;1.27;;;38.60;40.50;;;;;;5070049;28;20452;-54
2022/08/23 11:05:24;;;;;;;1.95;1.50;;;37.70;40.70;;;;;;5070811;28;20104;-54
2022/08/23 11:08:03;;;;;;;2.45;1.10;;;37.60;41.30;;;;;;5070365;28;20434;-54
2022/08/23 11:10:44;;;;;;;2.55;1.33;;;39.10;40.50;;;;;;5070196;28;20020;-54
2022/08/23 11:13:10;;;;;;;5.18;1.65;;;39.90;39.80;;;;;;5071191;28;20104;-54
2022/08/23 11:15:53;;;;;;;3.50;1.20;;;41.10;38.20;;;;;;5082318;28;20451;-54
2022/08/23 11:18:28;;;;;;;4.18;1.40;;;39.90;38.80;;;;;;5078667;28;20038;-54
2022/08/23 11:21:08;;;;;;;6.50;1.52;;;40.70;39.20;;;;;;5074209;28;20020;-54
2022/08/23 11:23:52;;;;;;;2.28;1.33;;;41.00;39.10;;;;;;5068105;28;20028;-54
2022/08/23 11:26:28;;;;;;;5.25;1.77;;;41.40;38.30;;;;;;5066742;28;20012;-54
2022/08/23 11:29:16;;;;;;;2.53;1.15;;;40.90;38.40;;;;;;5066699;28;20021;-54
2022/08/23 11:31:57;;;;;;;3.47;1.20;;;40.10;39.10;;;;;;5068174;28;20051;-54
2022/08/23 11:34:31;;;;;;;4.45;1.48;;;40.20;38.20;;;;;;5067280;28;20023;-54
2022/08/23 11:37:46;;;;;;;3.42;1.23;;;38.60;39.50;;;;;;5068062;28;20028;-54
2022/08/23 11:40:12;;;;;;;1.55;1.15;;;38.60;40.50;;;;;;5049026;28;20119;-54
2022/08/23 11:42:41;;;;;;;4.72;1.40;;;38.30;40.60;;;;;;5068862;28;20029;-54
2022/08/23 11:45:36;;;;;;;2.97;1.35;;;36.00;41.20;;;;;;5073834;28;20017;-53
2022/08/23 11:48:36;;;;;;;2.95;1.40;;;36.20;43.50;;;;;;5071485;28;20280;-54
2022/08/23 11:51:18;;;;;;;4.60;1.77;;;36.80;43.70;;;;;;5051374;28;20387;-54
2022/08/23 11:53:52;;;;;;;4.35;1.25;;;38.40;41.00;;;;;;5068555;28;20048;-54
2022/08/23 11:56:36;;;;;;;6.38;1.55;;;38.60;41.10;;;;;;5064742;28;20024;-54
2022/08/23 11:59:41;;;;;;;3.30;1.40;;;38.70;40.30;;;;;;5067007;28;20032;-54
2022/08/23 12:02:51;;;;;;;2.42;1.38;;;38.90;39.70;;;;;;5068507;28;20024;-54
2022/08/23 12:05:20;;;;;;;2.53;1.58;;;38.50;39.90;;;;;;5029657;28;20075;-54
2022/08/23 12:08:02;;;;;;;5.97;1.80;;;38.20;39.20;;;;;;5046287;28;20531;-54
2022/08/23 12:10:39;;;;;;;2.60;1.30;;;37.10;40.70;;;;;;5060109;28;20054;-53
2022/08/23 12:13:17;;;;;;;5.40;1.48;;;36.90;40.30;;;;;;5069098;28;20028;-53
2022/08/23 12:16:09;;;;;;;2.97;1.65;;;36.50;40.50;;;;;;5076090;28;20502;-53
2022/08/23 12:18:43;;;;;;;1.70;1.23;;;36.70;40.70;;;;;;5087280;28;20031;-53
2022/08/23 12:21:17;;;;;;;2.72;1.23;;;36.10;41.80;;;;;;5087302;28;20024;-53
2022/08/23 12:23:53;;;;;;;5.18;1.88;;;35.70;42.20;;;;;;5088969;28;20020;-53
2022/08/23 12:26:48;;;;;;;2.05;1.40;;;35.50;42.90;;;;;;5089086;28;20032;-53
2022/08/23 12:29:28;;;;;;;19.60;14.55;;;35.10;43.50;;;;;;5088828;28;20419;-53
2022/08/23 12:32:32;;;;;;;18.40;14.48;;;34.60;42.50;;;;;;5087184;28;20024;-54
2022/08/23 12:35:17;;;;;;;5.28;1.52;;;34.40;43.70;;;;;;5067236;28;20293;-53
2022/08/23 12:38:06;;;;;;;3.35;1.92;;;33.80;43.70;;;;;;5089194;28;20431;-53
2022/08/23 12:40:37;;;;;;;1.98;1.30;;;33.10;44.80;;;;;;5087233;28;20483;-53
2022/08/23 12:43:17;;;;;;;5.13;1.80;;;32.70;45.70;;;;;;5088810;28;20449;-53
2022/08/23 12:45:50;;;;;;;4.18;1.77;;;32.70;45.20;;;;;;5082526;28;20239;-53
2022/08/23 12:48:19;;;;;;;3.33;1.50;;;32.30;45.90;;;;;;5070009;28;20067;-53
2022/08/23 12:50:59;;;;;;;3.33;1.50;;;32.80;46.70;;;;;;5064806;28;20012;-53
2022/08/23 12:53:29;;;;;;;2.83;1.67;;;33.10;44.80;;;;;;5069060;28;20036;-53
2022/08/23 12:56:04;;;;;;;3.17;1.55;;;33.20;43.60;;;;;;5067857;28;20024;-53
2022/08/23 12:58:33;;;;;;;2.97;1.42;;;33.10;44.50;;;;;;5066692;28;20067;-55
2022/08/23 13:01:03;;;;;;;3.77;1.07;;;33.20;44.10;;;;;;5072262;28;20064;-54
2022/08/23 13:03:35;;;;;;;;;;;32.80;44.40;;;;;;5078602;28;20277;-55
2022/08/23 13:06:08;;;;;;;4.93;1.90;;;32.80;45.90;;;;;;5078273;28;20275;-55
2022/08/23 13:08:44;;;;;;;4.45;1.85;;;32.90;44.90;;;;;;5079769;28;20038;-55
2022/08/23 13:11:11;;;;;;;2.00;1.40;;;32.80;45.40;;;;;;5075928;28;20052;-54
2022/08/23 13:13:39;;;;;;;3.80;1.70;;;32.90;45.80;;;;;;5070408;28;20127;-55
2022/08/23 13:16:40;;;;;;;2.50;1.85;;;32.80;45.50;;;;;;5066828;28;20082;-54
2022/08/23 13:19:19;;;;;;;4.28;1.75;;;32.90;45.70;;;;;;5071803;28;20444;-55